Time;durP1;ratioP1;P1;durP2;ratioP2;P2;SDS_P1;SDS_P2;PMS_P1;PMS_P2;Temp;Humidity;BMP_temperature;BMP_pressure;BME280_temperature;BME280_humidity;BME280_pressure;Samples;Min_cycle;Max_cycle;Signal;HPM_P1;HPM_P2
2023/06/20 00:01:58;;;;;;;12.60;9.20;;;;;;;16.33;100.00;100991.48;106972;1243;62935;-69
2023/06/20 00:04:27;;;;;;;11.10;9.50;;;;;;;16.32;100.00;100988.81;106931;1247;59119;-67
2023/06/20 00:06:57;;;;;;;12.50;9.30;;;;;;;16.29;100.00;100987.00;107055;1248;71892;-68
2023/06/20 00:09:26;;;;;;;12.40;9.30;;;;;;;16.26;100.00;100987.20;106849;1248;71940;-68
2023/06/20 00:11:56;;;;;;;13.20;9.30;;;;;;;16.25;100.00;100987.50;106996;1256;60095;-68
2023/06/20 00:14:25;;;;;;;15.00;9.80;;;;;;;16.27;100.00;100984.19;106964;1244;62810;-70
2023/06/20 00:16:58;;;;;;;12.20;9.70;;;;;;;16.27;100.00;100983.80;106960;1245;58872;-67
2023/06/20 00:19:26;;;;;;;;;;;;;;;16.24;100.00;100985.33;106988;1254;60444;-68
2023/06/20 00:21:55;;;;;;;11.30;8.90;;;;;;;16.19;100.00;100987.00;106985;1250;73461;-68
2023/06/20 00:24:24;;;;;;;9.30;8.10;;;;;;;16.23;100.00;100995.38;106970;1245;71777;-68
2023/06/20 00:26:56;;;;;;;10.20;9.00;;;;;;;16.27;100.00;101003.30;106910;1247;70986;-69
2023/06/20 00:29:25;;;;;;;13.50;9.40;;;;;;;16.23;100.00;101007.00;106965;1246;73464;-69
2023/06/20 00:31:54;;;;;;;10.70;8.60;;;;;;;16.19;100.00;101004.96;107034;1245;59116;-67
2023/06/20 00:34:23;;;;;;;10.40;8.70;;;;;;;16.17;100.00;101004.60;106972;1248;60485;-67
2023/06/20 00:36:53;;;;;;;11.30;9.10;;;;;;;16.12;100.00;101003.79;106985;1244;72816;-68
2023/06/20 00:39:22;;;;;;;14.30;10.70;;;;;;;16.11;100.00;101000.21;106856;1248;72567;-68
2023/06/20 00:41:51;;;;;;;12.80;9.70;;;;;;;16.14;100.00;100997.57;106788;1257;59824;-68
2023/06/20 00:44:21;;;;;;;11.20;8.80;;;;;;;16.14;100.00;100995.30;106944;1254;71992;-67
2023/06/20 00:46:50;;;;;;;12.40;9.30;;;;;;;16.14;100.00;100991.45;106839;1255;59055;-68
2023/06/20 00:49:20;;;;;;;12.50;9.40;;;;;;;16.13;100.00;100990.67;106760;1248;57940;-68
2023/06/20 00:51:50;;;;;;;10.30;9.20;;;;;;;16.11;100.00;100984.73;106823;1250;72791;-67
2023/06/20 00:54:19;;;;;;;12.40;10.10;;;;;;;16.09;100.00;100980.34;106772;1254;74508;-67
2023/06/20 00:56:49;;;;;;;12.30;8.80;;;;;;;16.08;100.00;100975.73;106890;1245;70453;-67
2023/06/20 00:59:18;;;;;;;15.00;10.10;;;;;;;16.04;100.00;100977.10;106871;1245;73832;-67
2023/06/20 01:01:48;;;;;;;12.60;9.40;;;;;;;16.03;100.00;100983.33;106758;1248;62770;-67
2023/06/20 01:04:17;;;;;;;13.20;9.40;;;;;;;16.04;100.00;100984.52;106832;1252;61346;-67
2023/06/20 01:07:18;;;;;;;12.40;9.50;;;;;;;16.08;100.00;100980.63;106858;1257;72034;-67
2023/06/20 01:10:03;;;;;;;11.30;9.20;;;;;;;16.08;100.00;100973.59;106889;1247;62074;-67
2023/06/20 01:12:46;;;;;;;10.70;8.70;;;;;;;16.08;100.00;100968.64;106828;1248;60030;-68
2023/06/20 01:15:25;;;;;;;12.30;9.50;;;;;;;16.08;100.00;100962.35;106722;1245;73190;-67
2023/06/20 01:18:26;;;;;;;12.10;9.70;;;;;;;16.08;100.00;100964.63;106824;1248;63952;-68
2023/06/20 01:21:09;;;;;;;11.40;9.70;;;;;;;16.07;100.00;100971.95;107000;1245;61267;-68
2023/06/20 01:24:06;;;;;;;;;;;;;;;16.07;100.00;100966.49;106954;1254;73248;-69
2023/06/20 01:26:54;;;;;;;11.30;9.70;;;;;;;16.05;100.00;100960.73;106958;1247;62371;-66
2023/06/20 01:29:38;;;;;;;12.20;10.40;;;;;;;16.05;100.00;100960.19;106993;1257;59251;-68
2023/06/20 01:32:19;;;;;;;14.20;9.50;;;;;;;16.03;100.00;100957.16;107055;1248;62747;-66
2023/06/20 01:34:55;;;;;;;12.20;8.90;;;;;;;16.04;100.00;100962.35;106946;1243;63953;-68
2023/06/20 01:37:26;;;;;;;11.70;8.40;;;;;;;16.06;100.00;100964.41;106906;1248;57952;-66
2023/06/20 01:39:58;;;;;;;10.70;8.70;;;;;;;16.08;100.00;100963.88;106978;1249;72835;-67
2023/06/20 01:42:29;;;;;;;10.60;9.00;;;;;;;16.09;100.00;100964.17;107104;1245;62960;-67
2023/06/20 01:45:01;;;;;;;14.30;9.10;;;;;;;16.07;100.00;100966.48;106951;1245;70134;-66
2023/06/20 01:47:32;;;;;;;13.10;9.20;;;;;;;16.08;100.00;100975.73;106997;1245;75415;-69
2023/06/20 01:50:02;;;;;;;13.10;9.30;;;;;;;16.09;100.00;100980.16;106816;1247;63170;-67
2023/06/20 01:52:34;;;;;;;13.80;9.30;;;;;;;16.10;100.00;100982.56;106803;1255;61128;-69
2023/06/20 01:55:10;;;;;;;12.40;10.10;;;;;;;16.09;100.00;100980.32;106871;1244;74138;-68
2023/06/20 01:57:40;;;;;;;11.70;9.60;;;;;;;16.07;100.00;100988.57;106763;1247;71819;-69
2023/06/20 02:00:11;;;;;;;12.00;8.80;;;;;;;16.04;100.00;100990.45;106908;1247;60341;-69
2023/06/20 02:02:41;;;;;;;12.20;8.90;;;;;;;16.02;100.00;100988.02;106993;1256;63446;-68
2023/06/20 02:05:12;;;;;;;11.50;9.00;;;;;;;16.00;100.00;100988.41;106847;1247;62993;-68
2023/06/20 02:07:43;;;;;;;12.50;9.00;;;;;;;15.98;100.00;100993.16;106918;1247;58960;-68
2023/06/20 02:10:13;;;;;;;10.60;8.40;;;;;;;15.98;100.00;101002.57;106762;1248;72971;-68
2023/06/20 02:12:44;;;;;;;11.30;8.40;;;;;;;15.99;100.00;101000.91;106846;1245;71836;-68
2023/06/20 02:15:14;;;;;;;10.90;8.80;;;;;;;15.99;100.00;101010.80;106857;1247;70179;-71
2023/06/20 02:17:45;;;;;;;11.90;8.70;;;;;;;15.98;100.00;101015.83;106897;1247;62884;-68
2023/06/20 02:20:15;;;;;;;11.10;8.80;;;;;;;15.96;100.00;101015.98;107052;1256;59357;-68
2023/06/20 02:22:47;;;;;;;11.10;9.10;;;;;;;15.97;100.00;101019.58;107031;1247;59055;-68
2023/06/20 02:25:33;;;;;;;16.40;8.70;;;;;;;15.98;100.00;101023.35;107064;1247;73408;-68
2023/06/20 02:28:05;;;;;;;12.10;8.40;;;;;;;15.99;100.00;101026.04;107115;1245;72950;-68
2023/06/20 02:30:37;;;;;;;11.30;8.60;;;;;;;16.00;100.00;101031.08;107169;1243;71945;-68
2023/06/20 02:33:08;;;;;;;13.90;8.80;;;;;;;16.02;100.00;101033.54;107097;1247;64829;-68
2023/06/20 02:35:38;;;;;;;13.20;8.30;;;;;;;16.02;100.00;101031.37;107084;1246;62897;-67
2023/06/20 02:38:11;;;;;;;13.00;8.70;;;;;;;16.05;100.00;101032.92;107087;1245;58965;-67
2023/06/20 02:40:39;;;;;;;12.20;8.40;;;;;;;16.05;100.00;101031.81;107049;1244;73609;-67
2023/06/20 02:43:09;;;;;;;12.60;8.50;;;;;;;16.04;100.00;101030.64;107173;1246;72045;-68
2023/06/20 02:45:38;;;;;;;12.50;8.70;;;;;;;16.02;100.00;101029.95;107192;1244;70887;-68
2023/06/20 02:48:17;;;;;;;11.60;9.20;;;;;;;16.05;100.00;101035.17;106939;1243;74990;-69
2023/06/20 02:51:06;;;;;;;15.10;8.30;;;;;;;16.05;100.00;101036.23;107183;1245;58865;-68
2023/06/20 02:53:57;;;;;;;10.00;8.30;;;;;;;16.07;100.00;101036.79;107016;1247;60479;-67
2023/06/20 02:56:29;;;;;;;12.00;9.00;;;;;;;16.08;100.00;101038.24;107073;1255;62930;-68
2023/06/20 02:59:02;;;;;;;11.00;8.40;;;;;;;16.08;100.00;101040.63;107117;1245;60923;-68
2023/06/20 03:01:33;;;;;;;10.00;8.00;;;;;;;16.06;100.00;101050.36;107041;1251;59313;-68
2023/06/20 03:04:04;;;;;;;14.40;8.50;;;;;;;16.06;100.00;101054.06;107004;1243;63579;-68
2023/06/20 03:06:37;;;;;;;11.40;9.00;;;;;;;16.07;100.00;101056.73;107052;1245;58733;-68
2023/06/20 03:09:06;;;;;;;;;;;;;;;16.09;100.00;101062.73;107221;1246;58787;-68
2023/06/20 03:11:35;;;;;;;11.10;8.40;;;;;;;16.10;100.00;101062.65;107106;1245;63020;-67
2023/06/20 03:14:11;;;;;;;11.60;8.20;;;;;;;16.14;100.00;101062.83;106922;1250;71455;-68
2023/06/20 03:16:43;;;;;;;10.30;8.60;;;;;;;16.15;100.00;101066.23;106976;1244;71045;-65
2023/06/20 03:19:12;;;;;;;11.10;9.00;;;;;;;16.21;100.00;101067.84;106961;1248;74642;-67
2023/06/20 03:21:42;;;;;;;13.40;9.20;;;;;;;16.19;100.00;101055.17;106955;1247;62607;-69
2023/06/20 03:24:11;;;;;;;10.30;8.70;;;;;;;16.31;100.00;101069.54;107104;1251;58914;-68
2023/06/20 03:26:40;;;;;;;9.80;8.30;;;;;;;16.35;100.00;101069.48;107026;1247;62170;-68
2023/06/20 03:29:10;;;;;;;10.50;8.90;;;;;;;16.39;100.00;101070.38;106961;1244;63778;-68
2023/06/20 03:31:40;;;;;;;10.80;8.20;;;;;;;16.41;100.00;101072.61;106953;1245;70624;-68
2023/06/20 03:34:09;;;;;;;11.50;8.10;;;;;;;16.40;100.00;101070.48;106916;1249;63365;-68
2023/06/20 03:36:38;;;;;;;12.10;8.20;;;;;;;16.38;100.00;101076.41;107035;1247;61758;-68
2023/06/20 03:39:07;;;;;;;18.00;9.40;;;;;;;16.45;100.00;101074.29;107013;1246;59096;-68
2023/06/20 03:41:36;;;;;;;30.00;10.30;;;;;;;16.49;100.00;101070.58;107047;1247;72773;-73
2023/06/20 03:44:05;;;;;;;11.90;8.80;;;;;;;16.53;100.00;101066.49;106874;1245;73259;-68
2023/06/20 03:46:34;;;;;;;11.60;8.70;;;;;;;16.55;100.00;101059.77;107032;1257;70532;-69
2023/06/20 03:49:03;;;;;;;11.50;8.80;;;;;;;16.57;100.00;101061.00;107012;1247;72670;-67
2023/06/20 03:51:33;;;;;;;13.50;9.10;;;;;;;16.61;100.00;101060.10;107036;1246;62763;-68
2023/06/20 03:54:02;;;;;;;14.30;10.10;;;;;;;16.64;100.00;101062.79;107121;1244;58904;-70
2023/06/20 03:56:31;;;;;;;12.60;9.00;;;;;;;16.71;100.00;101064.30;107035;1247;63032;-70
2023/06/20 03:59:00;;;;;;;15.20;10.40;;;;;;;16.77;100.00;101062.18;107100;1247;61116;-73
2023/06/20 04:01:30;;;;;;;15.30;9.30;;;;;;;16.83;100.00;101060.92;106916;1251;68780;-68
2023/06/20 04:04:00;;;;;;;12.60;8.50;;;;;;;16.91;100.00;101062.40;107040;1249;73545;-69
2023/06/20 04:06:33;;;;;;;14.90;9.80;;;;;;;17.01;100.00;101062.06;106899;1247;58935;-69
2023/06/20 04:09:04;;;;;;;13.20;9.30;;;;;;;17.10;100.00;101065.27;107018;1257;57509;-69
2023/06/20 04:11:33;;;;;;;17.90;9.10;;;;;;;17.22;100.00;101068.34;107007;1247;62983;-69
2023/06/20 04:14:02;;;;;;;15.60;9.80;;;;;;;17.31;100.00;101075.59;107203;1248;61071;-68
2023/06/20 04:16:31;;;;;;;18.20;9.40;;;;;;;17.33;100.00;101077.98;107161;1248;59185;-68
2023/06/20 04:19:00;;;;;;;12.80;8.50;;;;;;;17.38;100.00;101078.73;107102;1246;73057;-68
2023/06/20 04:21:32;;;;;;;13.50;9.70;;;;;;;17.49;100.00;101075.05;107121;1247;62868;-68
2023/06/20 04:24:01;;;;;;;11.10;7.70;;;;;;;17.64;100.00;101075.73;107028;1247;58886;-71
2023/06/20 04:26:30;;;;;;;8.90;7.40;;;;;;;17.76;100.00;101075.48;107150;1247;73582;-72
2023/06/20 04:28:59;;;;;;;9.60;7.20;;;;;;;17.81;100.00;101074.14;107084;1246;72320;-69
2023/06/20 04:31:30;;;;;;;8.20;6.90;;;;;;;17.86;100.00;101084.06;107105;1256;69125;-69
2023/06/20 04:34:00;;;;;;;9.50;6.80;;;;;;;17.92;100.00;101082.94;107125;1243;73549;-68
2023/06/20 04:36:30;;;;;;;9.30;7.80;;;;;;;17.96;100.00;101083.24;107033;1247;61675;-68
2023/06/20 04:39:03;;;;;;;11.70;8.90;;;;;;;18.12;100.00;101081.82;107034;1243;61054;-69
2023/06/20 04:41:32;;;;;;;14.60;8.80;;;;;;;18.27;100.00;101082.84;107001;1249;63240;-70
2023/06/20 04:44:01;;;;;;;13.30;8.30;;;;;;;18.32;100.00;101081.46;107183;1244;61203;-70
2023/06/20 04:46:30;;;;;;;10.50;7.40;;;;;;;18.33;100.00;101075.91;107161;1254;59422;-70
2023/06/20 04:49:00;;;;;;;9.30;5.90;;;;;;;18.40;100.00;101077.70;107160;1247;62735;-71
2023/06/20 04:51:29;;;;;;;10.60;5.70;;;;;;;18.47;100.00;101078.23;107096;1245;59116;-69
2023/06/20 04:53:58;;;;;;;14.60;6.90;;;;;;;18.48;100.00;101083.20;107061;1248;59121;-68
2023/06/20 04:56:27;;;;;;;19.90;7.90;;;;;;;18.45;100.00;101082.58;106976;1244;73779;-71
2023/06/20 04:58:59;;;;;;;8.80;6.30;;;;;;;18.56;100.00;101081.35;107134;1251;62057;-69
2023/06/20 05:01:28;;;;;;;9.80;6.30;;;;;;;18.66;100.00;101085.44;107152;1245;60001;-68
2023/06/20 05:03:57;;;;;;;10.30;6.00;;;;;;;18.75;100.00;101088.39;107033;1247;63306;-70
2023/06/20 05:06:26;;;;;;;8.70;5.90;;;;;;;18.76;100.00;101088.33;107091;1244;60611;-69
2023/06/20 05:08:55;;;;;;;7.40;6.10;;;;;;;18.84;100.00;101087.75;107055;1243;59112;-69
2023/06/20 05:11:26;;;;;;;7.10;5.70;;;;;;;18.86;100.00;101090.67;106978;1256;62524;-68
2023/06/20 05:13:55;;;;;;;9.00;5.70;;;;;;;18.83;100.00;101087.13;107119;1245;71051;-68
2023/06/20 05:16:24;;;;;;;7.90;5.70;;;;;;;18.86;100.00;101094.61;107125;1246;60525;-70
2023/06/20 05:18:53;;;;;;;11.70;5.90;;;;;;;18.94;100.00;101093.80;107148;1246;63308;-68
2023/06/20 05:21:22;;;;;;;9.00;5.60;;;;;;;18.94;100.00;101096.03;107071;1245;62146;-68
2023/06/20 05:23:51;;;;;;;8.80;5.70;;;;;;;19.00;100.00;101097.73;106944;1248;61403;-69
2023/06/20 05:28:01;;;;;;;8.50;5.90;;;;;;;19.11;100.00;101103.81;104195;1279;599158;-67
2023/06/20 05:30:33;;;;;;;7.60;5.80;;;;;;;19.08;100.00;101102.02;106674;1251;62484;-67
2023/06/20 05:33:02;;;;;;;9.00;5.90;;;;;;;19.21;100.00;101104.62;106658;1258;61332;-66
2023/06/20 05:35:32;;;;;;;9.40;5.40;;;;;;;19.40;100.00;101101.08;106651;1254;72292;-67
2023/06/20 05:38:01;;;;;;;8.80;5.50;;;;;;;19.55;100.00;101101.64;106802;1248;71694;-68
2023/06/20 05:40:30;;;;;;;6.70;5.30;;;;;;;19.67;100.00;101105.02;108411;1247;606582;-66
2023/06/20 05:42:59;;;;;;;13.00;5.30;;;;;;;19.85;100.00;101106.07;107851;1245;62464;-68
2023/06/20 05:45:29;;;;;;;9.00;5.40;;;;;;;19.94;100.00;101103.71;107040;1247;62921;-70
2023/06/20 05:47:58;;;;;;;6.10;5.00;;;;;;;20.04;100.00;101106.38;106811;1254;61916;-78
2023/06/20 05:50:30;;;;;;;5.70;4.80;;;;;;;20.12;100.00;101110.60;107112;1246;72232;-76
2023/06/20 05:53:00;;;;;;;7.20;4.80;;;;;;;20.05;100.00;101111.77;107173;1251;61249;-77
2023/06/20 05:55:28;;;;;;;5.40;4.50;;;;;;;20.00;100.00;101113.13;107167;1247;70472;-77
2023/06/20 05:57:57;;;;;;;8.00;5.10;;;;;;;19.99;100.00;101111.80;107237;1248;74297;-79
2023/06/20 06:00:27;;;;;;;6.30;4.70;;;;;;;19.85;100.00;101115.08;107164;1248;63401;-78
2023/06/20 06:02:56;;;;;;;5.80;4.40;;;;;;;20.09;100.00;101119.76;107113;1248;61746;-78
2023/06/20 06:05:26;;;;;;;7.10;4.80;;;;;;;20.13;100.00;101124.51;107053;1248;73534;-79
2023/06/20 06:07:54;;;;;;;6.20;4.70;;;;;;;20.09;100.00;101124.52;107102;1248;72597;-79
2023/06/20 06:10:25;;;;;;;6.60;4.50;;;;;;;20.10;100.00;101120.32;107072;1248;59135;-78
2023/06/20 06:12:54;;;;;;;5.60;4.30;;;;;;;20.20;100.00;101123.61;107272;1256;62442;-82
2023/06/20 06:15:23;;;;;;;5.70;4.20;;;;;;;20.21;100.00;101119.58;106996;1248;63660;-79
2023/06/20 06:17:53;;;;;;;9.50;5.10;;;;;;;20.25;100.00;101123.20;107046;1259;58294;-82
2023/06/20 06:20:42;;;;;;;7.20;5.20;;;;;;;20.15;100.00;101127.13;106959;1259;72806;-78
2023/06/20 06:23:11;;;;;;;7.50;5.50;;;;;;;20.11;100.00;101120.78;107052;1251;61572;-81
2023/06/20 06:25:40;;;;;;;5.90;4.70;;;;;;;20.20;100.00;101124.28;107120;1248;60019;-80
2023/06/20 06:28:09;;;;;;;6.50;5.10;;;;;;;20.22;100.00;101118.61;107109;1248;62492;-79
2023/06/20 06:30:38;;;;;;;7.00;5.50;;;;;;;20.39;100.00;101121.22;106926;1251;61250;-80
2023/06/20 06:33:08;;;;;;;6.90;5.20;;;;;;;20.49;100.00;101120.09;107173;1254;60358;-79
2023/06/20 06:35:38;;;;;;;6.10;5.10;;;;;;;20.56;100.00;101115.64;107452;1245;61345;-81
2023/06/20 06:38:07;;;;;;;7.20;5.10;;;;;;;20.59;100.00;101114.41;107305;1246;60992;-78
2023/06/20 06:40:36;;;;;;;7.20;5.40;;;;;;;20.68;100.00;101112.20;107413;1248;59283;-77
2023/06/20 06:43:06;;;;;;;5.30;4.30;;;;;;;20.83;100.00;101109.16;107402;1253;74271;-78
2023/06/20 06:45:37;;;;;;;6.70;4.90;;;;;;;20.98;100.00;101106.48;107253;1246;58964;-79
2023/06/20 06:48:06;;;;;;;5.80;4.60;;;;;;;21.08;100.00;101107.98;107192;1245;59009;-78
2023/06/20 06:50:35;;;;;;;6.50;4.80;;;;;;;21.18;100.00;101108.79;107240;1244;61328;-78
2023/06/20 06:53:04;;;;;;;6.90;5.10;;;;;;;21.25;100.00;101112.20;107362;1247;60864;-78
2023/06/20 06:55:33;;;;;;;6.00;5.10;;;;;;;21.29;100.00;101111.50;107185;1256;59830;-77
2023/06/20 06:58:02;;;;;;;7.30;5.00;;;;;;;21.36;100.00;101108.95;107397;1244;63234;-77
2023/06/20 07:00:32;;;;;;;7.80;4.80;;;;;;;21.51;100.00;101108.25;107403;1244;59086;-76
2023/06/20 07:03:01;;;;;;;6.10;5.10;;;;;;;21.59;100.00;101112.84;107395;1244;59027;-77
2023/06/20 07:05:30;;;;;;;7.40;5.10;;;;;;;21.59;100.00;101109.41;107114;1256;61399;-77
2023/06/20 07:07:59;;;;;;;6.10;4.60;;;;;;;21.47;100.00;101111.95;107292;1246;61611;-75
2023/06/20 07:10:28;;;;;;;10.30;5.40;;;;;;;21.48;100.00;101105.52;107163;1244;68139;-75
2023/06/20 07:12:57;;;;;;;8.40;4.70;;;;;;;21.50;100.00;101109.17;107167;1248;73917;-77
2023/06/20 07:15:26;;;;;;;5.00;4.40;;;;;;;21.63;100.00;101105.89;107588;1254;63323;-76
2023/06/20 07:17:55;;;;;;;6.00;5.10;;;;;;;21.72;100.00;101104.56;107435;1244;59055;-78
2023/06/20 07:20:24;;;;;;;7.50;5.00;;;;;;;21.76;100.00;101105.16;107317;1246;61422;-75
2023/06/20 07:22:53;;;;;;;7.00;5.30;;;;;;;21.71;100.00;101100.36;107479;1244;60979;-76
2023/06/20 07:25:22;;;;;;;6.30;4.80;;;;;;;21.79;100.00;101098.27;107411;1256;59243;-77
2023/06/20 07:27:51;;;;;;;6.80;5.20;;;;;;;21.91;100.00;101096.88;107456;1246;73806;-78
2023/06/20 07:30:20;;;;;;;8.60;5.50;;;;;;;21.98;100.00;101093.64;107472;1245;58990;-76
2023/06/20 07:32:49;;;;;;;7.10;5.20;;;;;;;22.13;100.00;101095.26;107514;1245;58475;-78
2023/06/20 07:35:18;;;;;;;8.90;5.40;;;;;;;22.32;100.00;101095.35;107466;1256;61406;-78
2023/06/20 07:37:47;;;;;;;6.90;5.20;;;;;;;22.47;100.00;101101.42;107382;1245;61662;-77
2023/06/20 07:40:16;;;;;;;6.20;5.30;;;;;;;22.61;100.00;101105.30;107473;1255;69733;-76
2023/06/20 07:42:44;;;;;;;5.60;4.60;;;;;;;22.50;100.00;101098.57;107515;1245;74176;-76
2023/06/20 07:45:13;;;;;;;5.60;5.10;;;;;;;22.71;100.00;101094.73;107466;1244;59142;-75
2023/06/20 07:47:42;;;;;;;7.20;5.10;;;;;;;22.77;100.00;101092.00;107445;1244;59139;-77
2023/06/20 07:50:11;;;;;;;7.60;5.70;;;;;;;22.65;100.00;101094.85;107364;1244;73116;-78
2023/06/20 07:52:40;;;;;;;6.80;5.10;;;;;;;22.80;100.00;101099.57;107316;1245;71724;-76
2023/06/20 07:55:09;;;;;;;6.80;4.60;;;;;;;22.97;100.00;101104.66;107241;1244;69928;-77
2023/06/20 07:57:57;;;;;;;8.90;6.20;;;;;;;23.05;100.00;101108.77;107395;1247;73536;-78
2023/06/20 08:00:28;;;;;;;8.20;6.30;;;;;;;22.94;100.00;101112.73;107243;1248;58302;-77
2023/06/20 08:02:57;;;;;;;8.00;5.90;;;;;;;23.03;100.00;101113.11;107490;1244;58998;-77
2023/06/20 08:05:26;;;;;;;7.30;5.30;;;;;;;23.15;100.00;101113.66;107378;1251;63074;-76
2023/06/20 08:07:56;;;;;;;7.90;6.30;;;;;;;23.23;100.00;101113.39;107358;1244;71371;-76
2023/06/20 08:10:25;;;;;;;8.50;7.50;;;;;;;23.28;100.00;101114.25;107248;1244;70350;-77
2023/06/20 08:12:53;;;;;;;9.70;6.90;;;;;;;23.35;100.00;101117.98;107271;1245;73438;-76
2023/06/20 08:15:22;;;;;;;9.40;7.50;;;;;;;23.38;100.00;101114.30;107268;1255;58273;-80
2023/06/20 08:17:52;;;;;;;8.10;6.60;;;;;;;23.44;100.00;101112.85;107244;1252;60445;-78
2023/06/20 08:20:20;;;;;;;9.40;6.60;;;;;;;23.48;100.00;101109.66;107351;1244;72420;-77
2023/06/20 08:22:49;;;;;;;7.70;6.80;;;;;;;23.31;100.00;101102.15;107084;1248;71865;-78
2023/06/20 08:25:18;;;;;;;9.70;6.50;;;;;;;23.62;100.00;101104.04;107219;1245;60569;-77
2023/06/20 08:27:47;;;;;;;7.90;6.70;;;;;;;23.76;100.00;101104.83;107274;1245;62478;-76
2023/06/20 08:30:26;;;;;;;7.80;6.50;;;;;;;23.92;100.00;101105.26;107242;1244;58949;-76
2023/06/20 08:32:56;;;;;;;8.00;6.20;;;;;;;24.04;100.00;101098.90;107356;1252;60419;-76
2023/06/20 08:35:25;;;;;;;7.30;6.20;;;;;;;24.25;100.00;101103.08;107400;1244;74608;-76
2023/06/20 08:37:53;;;;;;;8.40;7.00;;;;;;;24.22;100.00;101105.73;107471;1245;71811;-76
2023/06/20 08:40:22;;;;;;;8.30;6.50;;;;;;;24.18;100.00;101108.80;107429;1244;61524;-77
2023/06/20 08:42:55;;;;;;;7.40;6.50;;;;;;;24.11;100.00;101111.61;107287;1245;73164;-78
2023/06/20 08:45:27;;;;;;;8.40;7.20;;;;;;;24.18;100.00;101111.97;107219;1247;60907;-77
2023/06/20 08:47:59;;;;;;;7.50;6.80;;;;;;;24.35;100.00;101113.79;107782;1244;61773;-76
2023/06/20 08:50:29;;;;;;;9.00;7.20;;;;;;;24.39;100.00;101111.09;107353;1244;62594;-78
2023/06/20 08:53:04;;;;;;;9.10;6.50;;;;;;;24.42;100.00;101112.85;107304;1247;60907;-77
2023/06/20 08:55:35;;;;;;;9.20;6.70;;;;;;;24.44;99.77;101112.89;107224;1256;69628;-76
2023/06/20 08:58:09;;;;;;;7.60;6.20;;;;;;;24.42;99.97;101110.21;107266;1256;73911;-77
